createdAt,value
2023-05-12T00:00:09.261Z,4.40
2023-05-12T00:05:49.988Z,4.90
2023-05-12T00:11:21.329Z,4.30
2023-05-12T00:16:47.999Z,4.90
2023-05-12T00:22:18.315Z,4.40
2023-05-12T00:27:46.424Z,4.10
2023-05-12T00:33:14.481Z,4.00
2023-05-12T00:38:40.111Z,4.50
2023-05-12T00:44:08.752Z,4.30
2023-05-12T00:49:36.089Z,4.20
2023-05-12T00:55:01.869Z,4.20
2023-05-12T01:00:46.920Z,4.20
2023-05-12T01:07:06.298Z,4.10
2023-05-12T01:20:36.489Z,4.40
2023-05-12T01:26:13.156Z,3.50
2023-05-12T01:31:44.291Z,4.60
2023-05-12T01:37:13.776Z,3.90
2023-05-12T01:42:46.269Z,4.30
2023-05-12T01:48:11.430Z,4.20
2023-05-12T01:53:36.691Z,4.10
2023-05-12T01:59:01.863Z,3.50
2023-05-12T02:04:29.936Z,3.70
2023-05-12T02:09:55.970Z,4.60
2023-05-12T02:15:24.392Z,3.80
2023-05-12T02:20:53.309Z,3.80
2023-05-12T02:26:19.779Z,4.00
2023-05-12T02:31:44.633Z,4.20
2023-05-12T02:37:13.298Z,4.80
2023-05-12T02:42:38.761Z,4.10
2023-05-12T02:48:10.956Z,4.30
2023-05-12T02:54:18.794Z,4.10
2023-05-12T02:59:51.453Z,4.30
2023-05-12T03:05:29.718Z,3.90
2023-05-12T03:10:54.909Z,4.20
2023-05-12T03:16:19.935Z,4.30
2023-05-12T03:22:26.501Z,5.00
2023-05-12T03:27:58.416Z,6.10
2023-05-12T03:33:23.821Z,4.70
2023-05-12T03:38:59.193Z,4.90
2023-05-12T03:44:46.830Z,4.60
2023-05-12T03:50:15.057Z,4.80
2023-05-12T03:55:45.937Z,4.70
2023-05-12T04:01:11.622Z,5.00
2023-05-12T04:06:42.345Z,5.10
2023-05-12T04:12:10.485Z,4.90
2023-05-12T04:17:35.383Z,5.10
2023-05-12T04:23:03.395Z,4.30
2023-05-12T04:28:28.252Z,4.20
2023-05-12T04:34:02.782Z,5.60
2023-05-12T04:39:33.932Z,4.30
2023-05-12T04:45:13.322Z,5.30
2023-05-12T04:50:44.312Z,5.10
2023-05-12T04:56:09.175Z,5.60
2023-05-12T05:01:45.099Z,4.50
2023-05-12T05:07:34.502Z,5.20
2023-05-12T05:13:37.425Z,5.30
2023-05-12T05:19:06.905Z,5.00
2023-05-12T05:24:49.115Z,4.40
2023-05-12T05:30:13.765Z,5.00
2023-05-12T05:35:50.962Z,4.70
2023-05-12T05:42:05.133Z,5.30
2023-05-12T05:47:43.024Z,4.80
2023-05-12T05:53:08.510Z,4.40
2023-05-12T05:58:36.477Z,5.00
2023-05-12T06:04:03.367Z,4.80
2023-05-12T06:09:30.387Z,4.70
2023-05-12T06:14:56.252Z,4.90
2023-05-12T06:20:53.839Z,5.20
2023-05-12T06:27:00.649Z,4.30
2023-05-12T06:32:57.331Z,5.00
2023-05-12T06:38:54.959Z,5.20
2023-05-12T06:44:54.099Z,5.50
2023-05-12T06:50:40.195Z,5.40
2023-05-12T06:56:29.566Z,5.70
2023-05-12T07:01:59.071Z,5.60
2023-05-12T07:07:31.605Z,5.30
2023-05-12T07:13:28.003Z,4.80
2023-05-12T07:19:13.199Z,5.80
2023-05-12T07:24:42.195Z,5.70
2023-05-12T07:30:10.335Z,6.10
2023-05-12T07:35:35.182Z,6.00
2023-05-12T07:41:03.433Z,6.50
2023-05-12T07:47:28.665Z,6.30
2023-05-12T08:33:30.066Z,6.70
2023-05-12T08:38:57.526Z,6.30
2023-05-12T08:45:23.200Z,6.10
2023-05-12T08:50:58.095Z,6.30
2023-05-12T09:02:52.030Z,6.10
2023-05-12T09:08:20.583Z,6.40
2023-05-12T09:14:29.304Z,5.90
2023-05-12T09:19:59.483Z,5.70
2023-05-12T09:25:29.871Z,6.20
2023-05-12T09:30:59.654Z,5.50
2023-05-12T09:36:41.811Z,5.90
2023-05-12T09:42:13.746Z,5.20
2023-05-12T09:47:42.130Z,5.30
2023-05-12T09:53:24.340Z,4.60
2023-05-12T09:58:51.034Z,4.70
2023-05-12T10:04:38.097Z,4.50
2023-05-12T10:10:05.889Z,3.80
2023-05-12T10:15:40.358Z,3.80
2023-05-12T10:21:33.118Z,3.40
2023-05-12T10:27:06.658Z,2.90
2023-05-12T10:32:43.923Z,3.30
2023-05-12T10:38:18.568Z,2.80
2023-05-12T10:43:56.483Z,3.60
2023-05-12T10:49:33.477Z,2.60
2023-05-12T10:55:04.769Z,2.60
2023-05-12T11:00:43.997Z,2.20
2023-05-12T11:06:22.706Z,2.60
2023-05-12T11:12:17.555Z,2.40
2023-05-12T11:18:16.725Z,2.30
2023-05-12T11:23:51.493Z,2.50
2023-05-12T11:29:16.446Z,2.30
2023-05-12T11:34:44.158Z,2.10
2023-05-12T11:40:24.479Z,2.40
2023-05-12T11:45:53.810Z,2.20
2023-05-12T11:51:25.220Z,1.90
2023-05-12T11:56:55.355Z,2.20
2023-05-12T12:02:22.270Z,2.10
2023-05-12T12:07:49.823Z,1.80
2023-05-12T12:13:27.885Z,1.50
2023-05-12T12:19:16.044Z,2.00
2023-05-12T12:24:44.398Z,1.60
2023-05-12T12:30:10.929Z,1.60
2023-05-12T12:35:38.758Z,2.10
2023-05-12T12:41:03.211Z,1.90
2023-05-12T12:46:34.940Z,2.00
2023-05-12T12:52:02.676Z,2.00
2023-05-12T12:57:31.122Z,1.60
2023-05-12T13:02:57.142Z,1.70
2023-05-12T13:08:24.814Z,2.20
2023-05-12T13:13:52.577Z,2.60
2023-05-12T13:19:20.747Z,2.00
2023-05-12T13:24:57.118Z,2.00
2023-05-12T13:30:23.054Z,2.00
2023-05-12T13:35:48.938Z,1.80
2023-05-12T13:41:16.983Z,1.60
2023-05-12T13:46:45.092Z,1.30
2023-05-12T13:52:09.757Z,1.30
2023-05-12T13:57:40.330Z,1.90
2023-05-12T14:03:08.593Z,1.40
2023-05-12T14:08:34.771Z,1.80
2023-05-12T14:14:12.267Z,1.70
2023-05-12T14:20:27.214Z,1.80
2023-05-12T14:27:01.421Z,2.50
2023-05-12T15:12:16.507Z,2.30
2023-05-12T15:17:48.153Z,1.80
2023-05-12T15:23:51.628Z,2.50
2023-05-12T15:29:39.914Z,2.20
2023-05-12T15:35:10.241Z,2.10
2023-05-12T15:41:02.994Z,2.90
2023-05-12T15:46:47.937Z,1.90
2023-05-12T15:52:13.038Z,1.80
2023-05-12T15:57:49.134Z,2.10
2023-05-12T16:03:35.083Z,1.60
2023-05-12T16:09:21.809Z,2.40
2023-05-12T16:15:50.205Z,1.90
2023-05-12T16:21:28.473Z,1.70
2023-05-12T16:27:03.991Z,2.00
2023-05-12T16:32:38.042Z,1.80
2023-05-12T16:38:08.998Z,2.10
2023-05-12T16:43:44.475Z,1.70
2023-05-12T16:50:01.250Z,2.00
2023-05-12T16:55:29.632Z,2.10
2023-05-12T17:01:06.257Z,3.10
2023-05-12T17:06:31.451Z,2.10
2023-05-12T17:11:59.092Z,2.00
2023-05-12T17:17:42.512Z,11.20
2023-05-12T17:23:10.568Z,2.60
2023-05-12T17:29:19.642Z,2.50
2023-05-12T17:35:00.000Z,2.20
2023-05-12T17:40:46.143Z,2.40
2023-05-12T17:46:54.116Z,2.60
2023-05-12T17:52:34.033Z,3.20
2023-05-12T17:58:15.981Z,13.10
2023-05-12T18:03:44.359Z,13.90
2023-05-12T18:09:16.491Z,3.10
2023-05-12T18:14:52.058Z,2.80
2023-05-12T18:20:37.616Z,2.80
2023-05-12T18:26:22.654Z,2.40
2023-05-12T18:31:50.629Z,2.60
2023-05-12T18:37:19.023Z,2.50
2023-05-12T18:43:44.349Z,3.00
2023-05-12T18:50:10.202Z,2.80
2023-05-12T18:55:37.796Z,2.90
2023-05-12T19:01:27.566Z,3.50
2023-05-12T19:06:58.772Z,3.10
2023-05-12T19:12:28.286Z,4.10
2023-05-12T19:18:09.482Z,3.80
2023-05-12T19:23:58.068Z,3.80
2023-05-12T19:29:30.179Z,3.80
2023-05-12T19:34:58.093Z,3.70
2023-05-12T19:40:23.377Z,3.60
2023-05-12T19:45:52.268Z,3.40
2023-05-12T19:51:17.161Z,3.30
2023-05-12T19:57:03.801Z,2.90
2023-05-12T20:02:32.107Z,3.80
2023-05-12T20:08:20.662Z,4.00
2023-05-12T20:14:06.347Z,4.10
2023-05-12T20:19:57.321Z,4.30
2023-05-12T20:25:42.795Z,5.10
2023-05-12T20:31:10.513Z,5.20
2023-05-12T20:37:00.010Z,5.00
2023-05-12T20:47:54.661Z,4.70
2023-05-12T20:53:37.837Z,4.20
2023-05-12T20:59:15.501Z,4.20
2023-05-12T21:04:51.986Z,4.60
2023-05-12T21:10:21.886Z,4.10
2023-05-12T21:15:46.326Z,4.10
2023-05-12T21:21:14.231Z,4.60
2023-05-12T21:26:40.495Z,3.60
2023-05-12T21:32:08.015Z,4.50
2023-05-12T21:37:49.883Z,4.00
2023-05-12T21:43:22.802Z,4.50
2023-05-12T21:49:03.065Z,4.50
2023-05-12T21:54:48.938Z,4.20
2023-05-12T22:00:20.568Z,4.30
2023-05-12T22:06:01.303Z,3.80
2023-05-12T22:11:25.794Z,4.40
2023-05-12T22:16:56.395Z,4.60
2023-05-12T22:22:33.300Z,4.10
2023-05-12T22:28:05.882Z,4.40
2023-05-12T22:33:43.619Z,4.90
2023-05-12T22:39:23.007Z,4.60
2023-05-12T22:45:09.086Z,4.50
2023-05-12T22:50:36.351Z,4.50
2023-05-12T22:56:04.045Z,5.00
2023-05-12T23:01:31.929Z,4.90
2023-05-12T23:07:08.987Z,4.30
2023-05-12T23:12:33.821Z,4.60
2023-05-12T23:18:17.015Z,4.30
2023-05-12T23:23:57.550Z,4.50
2023-05-12T23:29:34.780Z,5.80
2023-05-12T23:35:03.032Z,5.00
2023-05-12T23:40:33.527Z,5.00
2023-05-12T23:45:58.614Z,4.90
2023-05-12T23:51:28.938Z,5.30
2023-05-12T23:56:56.806Z,4.20
